createdAt,value
2018-08-30T00:01:36.116Z,7.40
2018-08-30T00:04:05.211Z,7.13
2018-08-30T00:06:34.214Z,7.07
2018-08-30T00:09:03.273Z,7.90
2018-08-30T00:11:32.225Z,7.10
2018-08-30T00:14:01.231Z,7.17
2018-08-30T00:16:30.173Z,6.60
2018-08-30T00:18:59.179Z,7.43
2018-08-30T00:21:28.206Z,7.57
2018-08-30T00:23:57.192Z,7.27
2018-08-30T00:26:26.266Z,6.57
2018-08-30T00:28:55.241Z,7.57
2018-08-30T00:31:24.306Z,7.13
2018-08-30T00:33:53.327Z,6.90
2018-08-30T00:36:22.369Z,7.40
2018-08-30T00:38:51.316Z,6.93
2018-08-30T00:41:20.336Z,7.43
2018-08-30T00:43:49.346Z,7.10
2018-08-30T00:46:18.341Z,6.57
2018-08-30T00:48:47.332Z,6.37
2018-08-30T00:51:16.300Z,7.13
2018-08-30T00:53:45.255Z,6.87
2018-08-30T00:56:14.219Z,7.20
2018-08-30T00:58:43.174Z,7.23
2018-08-30T01:01:12.190Z,7.00
2018-08-30T01:03:41.214Z,7.57
2018-08-30T01:06:10.091Z,7.67
2018-08-30T01:08:39.061Z,7.50
2018-08-30T01:11:08.120Z,7.00
2018-08-30T01:13:37.126Z,7.10
2018-08-30T01:16:06.195Z,6.70
2018-08-30T01:18:35.418Z,7.47
2018-08-30T01:21:04.415Z,6.70
2018-08-30T01:23:33.506Z,7.47
2018-08-30T01:26:02.530Z,7.27
2018-08-30T01:28:31.559Z,8.00
2018-08-30T01:31:00.544Z,8.10
2018-08-30T01:33:29.566Z,7.73
2018-08-30T01:35:58.605Z,6.50
2018-08-30T01:38:27.630Z,7.33
2018-08-30T01:40:56.636Z,7.93
2018-08-30T01:43:25.629Z,8.50
2018-08-30T01:45:54.636Z,7.83
2018-08-30T01:48:23.625Z,7.13
2018-08-30T01:50:52.585Z,7.53
2018-08-30T01:53:21.465Z,8.27
2018-08-30T01:55:50.483Z,8.20
2018-08-30T01:58:19.495Z,7.30
2018-08-30T02:00:48.445Z,7.70
2018-08-30T02:03:17.392Z,7.73
2018-08-30T02:05:46.330Z,7.13
2018-08-30T02:08:15.260Z,6.93
2018-08-30T02:10:44.291Z,7.20
2018-08-30T02:13:13.334Z,6.47
2018-08-30T02:15:42.294Z,7.57
2018-08-30T02:18:11.192Z,7.30
2018-08-30T02:20:40.205Z,7.37
2018-08-30T02:23:09.155Z,6.90
2018-08-30T02:25:38.126Z,6.97
2018-08-30T02:28:07.153Z,6.70
2018-08-30T02:30:36.540Z,7.27
2018-08-30T02:33:05.572Z,7.50
2018-08-30T02:35:34.640Z,6.30
2018-08-30T02:38:03.799Z,7.67
2018-08-30T02:40:33.157Z,7.50
2018-08-30T02:43:02.188Z,7.23
2018-08-30T02:45:31.168Z,7.27
2018-08-30T02:48:00.049Z,7.37
2018-08-30T02:50:29.007Z,6.73
2018-08-30T02:52:58.025Z,5.63
2018-08-30T02:55:27.007Z,5.40
2018-08-30T02:57:55.931Z,4.37
2018-08-30T03:00:24.945Z,4.17
2018-08-30T03:02:54.017Z,4.30
2018-08-30T03:05:23.084Z,4.73
2018-08-30T03:07:52.056Z,4.37
2018-08-30T03:10:21.135Z,4.03
2018-08-30T03:12:50.117Z,3.57
2018-08-30T03:15:19.045Z,3.67
2018-08-30T03:17:48.053Z,3.47
2018-08-30T03:20:17.045Z,2.93
2018-08-30T03:22:46.097Z,2.77
2018-08-30T03:25:15.132Z,3.20
2018-08-30T03:27:44.115Z,3.17
2018-08-30T03:30:13.118Z,3.27
2018-08-30T03:32:42.085Z,3.00
2018-08-30T03:35:11.082Z,3.30
2018-08-30T03:37:40.099Z,3.00
2018-08-30T03:40:09.085Z,3.20
2018-08-30T03:42:38.026Z,3.17
2018-08-30T03:45:07.080Z,2.50
2018-08-30T03:47:36.041Z,2.70
2018-08-30T03:50:05.086Z,2.43
2018-08-30T03:52:34.073Z,2.60
2018-08-30T03:55:03.226Z,3.20
2018-08-30T03:57:32.277Z,2.60
2018-08-30T04:00:01.225Z,3.00
2018-08-30T04:02:30.161Z,2.50
2018-08-30T04:04:59.116Z,2.83
2018-08-30T04:07:28.008Z,3.00
2018-08-30T04:09:56.990Z,2.43
2018-08-30T04:12:26.048Z,2.30
2018-08-30T04:14:55.044Z,2.50
2018-08-30T04:17:24.023Z,2.30
2018-08-30T04:19:52.954Z,2.43
2018-08-30T04:22:21.890Z,2.77
2018-08-30T04:24:50.864Z,2.90
2018-08-30T04:27:19.805Z,3.23
2018-08-30T04:29:48.783Z,2.50
2018-08-30T04:32:17.801Z,2.47
2018-08-30T04:34:46.799Z,2.57
2018-08-30T04:37:15.813Z,2.77
2018-08-30T04:39:44.740Z,2.50
2018-08-30T04:42:13.723Z,2.93
2018-08-30T04:44:42.674Z,3.00
2018-08-30T04:47:11.747Z,2.97
2018-08-30T04:49:40.694Z,3.10
2018-08-30T04:52:09.730Z,2.70
2018-08-30T04:54:38.669Z,3.13
2018-08-30T04:57:07.715Z,2.60
2018-08-30T04:59:36.764Z,2.37
2018-08-30T05:02:05.882Z,2.03
2018-08-30T05:04:34.943Z,2.70
2018-08-30T05:07:03.948Z,2.50
2018-08-30T05:09:32.820Z,2.53
2018-08-30T05:12:01.853Z,2.50
2018-08-30T05:14:30.813Z,1.93
2018-08-30T05:16:59.828Z,2.40
2018-08-30T05:19:28.846Z,2.20
2018-08-30T05:21:57.819Z,2.10
2018-08-30T05:24:26.797Z,2.10
2018-08-30T05:26:55.824Z,2.30
2018-08-30T05:29:24.845Z,2.10
2018-08-30T05:31:53.807Z,1.87
2018-08-30T05:34:22.781Z,2.03
2018-08-30T05:36:51.709Z,2.00
2018-08-30T05:39:20.730Z,1.77
2018-08-30T05:41:49.746Z,1.97
2018-08-30T05:44:18.769Z,2.00
2018-08-30T05:46:47.849Z,1.93
2018-08-30T05:49:16.921Z,2.00
2018-08-30T05:51:45.804Z,2.03
2018-08-30T05:54:14.838Z,2.50
2018-08-30T05:56:44.482Z,1.93
2018-08-30T05:59:13.405Z,2.50
2018-08-30T06:01:42.379Z,2.00
2018-08-30T06:04:11.355Z,1.63
2018-08-30T06:06:40.387Z,2.53
2018-08-30T06:09:09.301Z,2.67
2018-08-30T06:11:38.220Z,1.90
2018-08-30T06:14:07.234Z,2.40
2018-08-30T06:16:36.316Z,2.30
2018-08-30T06:19:05.395Z,2.17
2018-08-30T06:21:34.451Z,2.13
2018-08-30T06:24:03.448Z,2.27
2018-08-30T06:26:32.521Z,1.90
2018-08-30T06:29:01.542Z,1.80
2018-08-30T06:31:30.529Z,1.83
2018-08-30T06:33:59.535Z,1.90
2018-08-30T06:36:28.503Z,2.10
2018-08-30T06:38:57.418Z,2.40
2018-08-30T06:41:26.427Z,1.87
2018-08-30T06:43:55.355Z,2.43
2018-08-30T06:46:24.349Z,2.23
2018-08-30T06:48:53.315Z,2.27
2018-08-30T06:51:22.335Z,1.80
2018-08-30T06:53:51.396Z,1.97
2018-08-30T06:56:20.620Z,1.73
2018-08-30T06:58:49.728Z,1.80
2018-08-30T07:01:18.632Z,2.00
2018-08-30T07:03:47.571Z,2.20
2018-08-30T07:06:16.690Z,1.80
2018-08-30T07:08:45.710Z,1.60
2018-08-30T07:11:14.724Z,2.00
2018-08-30T07:13:43.798Z,2.00
2018-08-30T07:16:12.890Z,1.80
2018-08-30T07:18:41.822Z,1.63
2018-08-30T07:21:10.907Z,1.50
2018-08-30T07:23:39.933Z,1.83
2018-08-30T07:26:08.926Z,1.80
2018-08-30T07:28:38.054Z,1.63
2018-08-30T07:31:07.176Z,1.80
2018-08-30T07:33:36.378Z,2.23
2018-08-30T07:36:05.480Z,1.83
2018-08-30T07:38:34.451Z,1.80
2018-08-30T07:41:03.445Z,1.80
2018-08-30T07:43:32.427Z,1.90
2018-08-30T07:46:01.578Z,1.60
2018-08-30T07:48:30.881Z,1.40
2018-08-30T07:51:00.019Z,1.70
2018-08-30T07:53:29.048Z,1.80
2018-08-30T07:55:58.137Z,1.67
2018-08-30T07:58:27.107Z,1.57
2018-08-30T08:00:56.333Z,1.80
2018-08-30T08:03:25.356Z,1.40
2018-08-30T08:05:54.417Z,1.50
2018-08-30T08:08:23.462Z,1.47
2018-08-30T08:10:52.482Z,1.97
2018-08-30T08:13:21.535Z,1.20
2018-08-30T08:15:50.707Z,1.40
2018-08-30T08:18:20.341Z,1.77
2018-08-30T08:20:49.518Z,1.57
2018-08-30T08:23:18.740Z,1.50
2018-08-30T08:25:47.775Z,1.30
2018-08-30T08:28:16.845Z,1.57
2018-08-30T08:30:45.909Z,1.53
2018-08-30T08:33:14.937Z,1.27
2018-08-30T08:35:43.868Z,1.53
2018-08-30T08:38:12.962Z,1.27
2018-08-30T08:40:42.054Z,1.20
2018-08-30T08:43:11.060Z,1.50
2018-08-30T08:45:40.169Z,1.50
2018-08-30T08:48:09.169Z,1.30
2018-08-30T08:50:38.202Z,1.20
2018-08-30T08:53:07.261Z,1.50
2018-08-30T08:55:36.225Z,1.20
2018-08-30T08:58:05.887Z,1.30
2018-08-30T09:00:34.907Z,1.50
2018-08-30T09:03:04.135Z,1.20
2018-08-30T09:05:33.571Z,1.30
2018-08-30T09:08:02.720Z,1.13
2018-08-30T09:10:31.902Z,1.23
2018-08-30T09:13:01.118Z,1.33
2018-08-30T09:15:30.274Z,1.30
2018-08-30T09:17:59.510Z,0.87
2018-08-30T09:20:28.602Z,1.20
2018-08-30T09:22:57.722Z,1.10
2018-08-30T09:25:26.779Z,1.07
2018-08-30T09:27:55.870Z,0.90
2018-08-30T09:30:24.883Z,1.40
2018-08-30T09:32:53.987Z,1.03
2018-08-30T09:35:23.014Z,1.00
2018-08-30T09:37:52.090Z,1.10
2018-08-30T09:40:21.289Z,0.80
2018-08-30T09:42:50.450Z,0.90
2018-08-30T09:45:19.606Z,1.00
2018-08-30T09:47:48.867Z,0.93
2018-08-30T09:50:18.028Z,1.00
2018-08-30T09:52:47.211Z,1.00
2018-08-30T09:55:16.374Z,0.70
2018-08-30T09:57:45.293Z,0.80
2018-08-30T10:00:18.480Z,1.00
2018-08-30T10:02:49.365Z,0.83
2018-08-30T10:05:18.766Z,1.10
2018-08-30T10:07:47.909Z,1.10
2018-08-30T10:10:16.969Z,0.90
2018-08-30T10:12:46.078Z,1.03
2018-08-30T10:15:15.059Z,1.00
2018-08-30T10:17:43.987Z,0.90
2018-08-30T10:20:13.149Z,1.10
2018-08-30T10:22:42.175Z,1.00
2018-08-30T10:25:11.173Z,1.20
2018-08-30T10:27:40.266Z,1.00
2018-08-30T10:30:09.383Z,1.00
2018-08-30T10:32:38.491Z,1.00
2018-08-30T10:35:07.650Z,1.00
2018-08-30T10:37:36.727Z,1.17
2018-08-30T10:40:05.791Z,1.20
2018-08-30T10:42:34.819Z,1.10
2018-08-30T10:45:03.977Z,1.20
2018-08-30T10:47:33.153Z,1.23
2018-08-30T10:50:02.226Z,1.00
2018-08-30T10:52:31.323Z,0.80
2018-08-30T10:55:00.359Z,1.00
2018-08-30T10:57:29.472Z,1.00
2018-08-30T10:59:58.677Z,1.00
2018-08-30T11:02:27.793Z,1.10
2018-08-30T11:04:56.994Z,1.00
2018-08-30T11:07:26.148Z,1.30
2018-08-30T11:09:55.141Z,1.10
2018-08-30T11:12:24.246Z,1.20
2018-08-30T11:14:53.306Z,0.90
2018-08-30T11:17:22.386Z,1.13
2018-08-30T11:19:51.409Z,1.17
2018-08-30T11:22:20.472Z,1.00
2018-08-30T11:24:49.482Z,1.00
2018-08-30T11:27:18.675Z,0.97
2018-08-30T11:29:47.824Z,1.20
2018-08-30T11:32:17.009Z,1.03
2018-08-30T11:34:46.026Z,1.10
2018-08-30T11:37:15.068Z,0.80
2018-08-30T11:39:44.084Z,1.23
2018-08-30T11:42:13.011Z,1.10
2018-08-30T11:44:42.092Z,1.13
2018-08-30T11:47:11.073Z,1.37
2018-08-30T11:49:39.931Z,1.10
2018-08-30T11:52:09.020Z,1.03
2018-08-30T11:54:37.989Z,1.23
2018-08-30T11:57:06.999Z,0.87
2018-08-30T11:59:36.034Z,1.30
2018-08-30T12:02:05.188Z,1.20
2018-08-30T12:04:34.253Z,1.13
2018-08-30T12:07:03.333Z,1.00
2018-08-30T12:09:32.273Z,1.27
2018-08-30T12:12:02.147Z,1.00
2018-08-30T12:14:31.083Z,0.90
2018-08-30T12:17:00.382Z,1.17
2018-08-30T12:19:29.381Z,1.10
2018-08-30T12:21:58.361Z,1.50
2018-08-30T12:24:27.358Z,1.50
2018-08-30T12:26:56.348Z,1.20
2018-08-30T12:29:25.398Z,1.30
2018-08-30T12:31:54.402Z,1.30
2018-08-30T12:34:23.471Z,1.53
2018-08-30T12:36:52.496Z,1.47
2018-08-30T12:39:21.492Z,1.13
2018-08-30T12:41:50.581Z,1.20
2018-08-30T12:44:19.719Z,1.30
2018-08-30T12:46:48.713Z,1.20
2018-08-30T12:49:17.805Z,1.40
2018-08-30T12:51:46.900Z,1.33
2018-08-30T12:54:15.870Z,1.50
2018-08-30T12:56:44.957Z,1.70
2018-08-30T12:59:16.533Z,1.50
2018-08-30T13:01:46.043Z,1.83
2018-08-30T13:04:15.100Z,1.77
2018-08-30T13:06:45.926Z,1.80
2018-08-30T13:09:16.100Z,1.33
2018-08-30T13:11:44.933Z,1.40
2018-08-30T13:14:13.983Z,1.00
2018-08-30T13:16:42.999Z,1.40
2018-08-30T13:19:12.196Z,1.07
2018-08-30T13:21:41.330Z,1.03
2018-08-30T13:24:10.484Z,0.87
2018-08-30T13:26:39.498Z,1.00
2018-08-30T13:29:08.640Z,1.10
2018-08-30T13:31:37.674Z,0.90
2018-08-30T13:34:06.987Z,1.00
2018-08-30T13:36:35.829Z,0.90
2018-08-30T13:39:06.805Z,0.87
2018-08-30T13:41:35.856Z,1.20
2018-08-30T13:44:05.701Z,1.43
2018-08-30T13:46:34.710Z,1.47
2018-08-30T13:49:03.888Z,1.50
2018-08-30T13:51:32.943Z,1.83
2018-08-30T13:54:02.055Z,1.70
2018-08-30T13:56:31.204Z,1.97
2018-08-30T13:59:00.314Z,1.50
2018-08-30T14:01:29.685Z,1.73
2018-08-30T14:03:58.132Z,1.77
2018-08-30T14:06:27.254Z,1.97
2018-08-30T14:08:56.390Z,1.97
2018-08-30T14:11:25.242Z,2.40
2018-08-30T14:13:54.299Z,1.93
2018-08-30T14:16:23.166Z,2.37
2018-08-30T14:18:52.315Z,2.10
2018-08-30T14:21:21.333Z,2.00
2018-08-30T14:23:50.322Z,2.00
2018-08-30T14:26:19.365Z,2.37
2018-08-30T14:28:48.351Z,2.77
2018-08-30T14:31:17.456Z,2.20
2018-08-30T14:33:46.640Z,2.33
2018-08-30T14:36:15.807Z,2.40
2018-08-30T14:38:45.003Z,2.30
2018-08-30T14:41:14.167Z,2.37
2018-08-30T14:43:43.207Z,1.93
2018-08-30T14:46:12.312Z,2.20
2018-08-30T14:48:41.273Z,2.50
2018-08-30T14:51:10.476Z,2.57
2018-08-30T14:53:39.636Z,2.60
2018-08-30T14:56:08.786Z,2.80
2018-08-30T14:58:37.862Z,3.33
2018-08-30T15:01:07.091Z,3.50
2018-08-30T15:03:36.035Z,3.00
2018-08-30T15:06:05.225Z,3.23
2018-08-30T15:08:34.071Z,3.10
2018-08-30T15:11:03.098Z,3.40
2018-08-30T15:13:32.149Z,3.37
2018-08-30T15:16:01.282Z,3.57
2018-08-30T15:18:30.429Z,3.53
2018-08-30T15:20:59.530Z,3.63
2018-08-30T15:23:28.700Z,3.77
2018-08-30T15:25:57.681Z,3.70
2018-08-30T15:28:26.672Z,3.60
2018-08-30T15:30:55.799Z,3.80
2018-08-30T15:33:24.888Z,3.50
2018-08-30T15:35:54.555Z,3.80
2018-08-30T15:38:23.597Z,3.87
2018-08-30T15:40:52.709Z,3.43
2018-08-30T15:43:21.783Z,3.40
2018-08-30T15:45:50.870Z,3.50
2018-08-30T15:48:20.033Z,3.50
2018-08-30T15:50:49.103Z,3.23
2018-08-30T15:53:18.291Z,3.70
2018-08-30T15:55:47.334Z,4.00
2018-08-30T15:58:16.459Z,3.43
2018-08-30T16:00:45.587Z,4.07
2018-08-30T16:03:14.674Z,3.70
2018-08-30T16:05:43.700Z,4.00
2018-08-30T16:08:12.754Z,3.90
2018-08-30T16:10:41.809Z,4.30
2018-08-30T16:13:10.835Z,3.80
2018-08-30T16:15:39.854Z,3.60
2018-08-30T16:18:08.816Z,3.93
2018-08-30T16:20:38.175Z,3.90
2018-08-30T16:23:20.144Z,3.73
2018-08-30T16:25:49.133Z,3.60
2018-08-30T16:28:18.020Z,4.27
2018-08-30T16:30:47.213Z,4.20
2018-08-30T16:33:16.427Z,3.27
2018-08-30T16:35:45.267Z,3.67
2018-08-30T16:38:15.040Z,3.80
2018-08-30T16:40:44.727Z,3.27
2018-08-30T16:43:13.680Z,3.73
2018-08-30T16:45:43.188Z,3.10
2018-08-30T16:48:12.204Z,3.30
2018-08-30T16:50:41.317Z,3.40
2018-08-30T16:53:10.445Z,3.60
2018-08-30T16:55:39.586Z,3.00
2018-08-30T16:58:08.608Z,3.37
2018-08-30T17:00:37.651Z,3.47
2018-08-30T17:03:07.172Z,3.50
2018-08-30T17:05:36.522Z,3.93
2018-08-30T17:08:06.090Z,5.17
2018-08-30T17:10:35.129Z,3.13
2018-08-30T17:13:04.163Z,4.00
2018-08-30T17:15:33.162Z,3.57
2018-08-30T17:18:02.120Z,4.30
2018-08-30T17:20:40.728Z,3.63
2018-08-30T17:23:10.025Z,4.63
2018-08-30T17:25:39.067Z,4.63
2018-08-30T17:28:08.119Z,4.50
2018-08-30T17:30:37.188Z,4.47
2018-08-30T17:33:06.484Z,4.67
2018-08-30T17:35:35.583Z,4.23
2018-08-30T17:38:04.791Z,4.60
2018-08-30T17:40:33.884Z,4.57
2018-08-30T17:43:03.034Z,5.27
2018-08-30T17:45:32.532Z,4.97
2018-08-30T17:48:01.494Z,4.77
2018-08-30T17:50:30.777Z,4.50
2018-08-30T17:52:59.792Z,4.30
2018-08-30T17:55:28.887Z,4.33
2018-08-30T17:57:57.947Z,4.97
2018-08-30T18:00:26.962Z,4.77
2018-08-30T18:02:56.020Z,5.70
2018-08-30T18:05:25.143Z,4.57
2018-08-30T18:07:54.252Z,4.80
2018-08-30T18:10:23.543Z,4.53
2018-08-30T18:12:52.668Z,5.23
2018-08-30T18:15:21.727Z,5.20
2018-08-30T18:17:50.825Z,5.10
2018-08-30T18:20:19.842Z,5.67
2018-08-30T18:22:48.969Z,6.13
2018-08-30T18:25:18.159Z,5.80
2018-08-30T18:27:47.230Z,5.67
2018-08-30T18:30:16.327Z,6.03
2018-08-30T18:32:45.450Z,6.07
2018-08-30T18:35:14.553Z,6.90
2018-08-30T18:37:43.613Z,6.53
2018-08-30T18:40:12.723Z,6.73
2018-08-30T18:42:41.805Z,5.33
2018-08-30T18:45:10.890Z,6.07
2018-08-30T18:47:39.924Z,6.17
2018-08-30T18:50:09.076Z,5.70
2018-08-30T18:52:39.719Z,5.80
2018-08-30T18:55:08.729Z,5.07
2018-08-30T18:57:37.762Z,6.10
2018-08-30T19:00:07.937Z,5.37
2018-08-30T19:02:37.015Z,5.67
2018-08-30T19:05:06.006Z,6.00
2018-08-30T19:07:35.112Z,5.80
2018-08-30T19:10:04.237Z,6.00
2018-08-30T19:12:33.260Z,6.87
2018-08-30T19:15:06.522Z,6.53
2018-08-30T19:17:40.985Z,6.30
2018-08-30T19:20:10.050Z,6.30
2018-08-30T19:22:39.094Z,6.33
2018-08-30T19:25:15.670Z,7.00
2018-08-30T19:27:46.160Z,6.30
2018-08-30T19:30:20.671Z,7.13
2018-08-30T19:32:49.787Z,10.73
2018-08-30T19:35:24.064Z,7.07
2018-08-30T19:37:53.047Z,8.13
2018-08-30T19:40:27.210Z,6.53
2018-08-30T19:42:57.235Z,6.97
2018-08-30T19:45:28.763Z,6.80
2018-08-30T19:47:58.438Z,6.23
2018-08-30T19:50:28.365Z,7.07
2018-08-30T19:52:57.406Z,5.93
2018-08-30T19:55:26.452Z,6.50
2018-08-30T19:57:55.427Z,7.10
2018-08-30T20:00:24.591Z,5.20
2018-08-30T20:02:53.788Z,6.30
2018-08-30T20:05:22.853Z,6.00
2018-08-30T20:07:51.902Z,5.60
2018-08-30T20:10:21.191Z,7.17
2018-08-30T20:12:50.189Z,6.00
2018-08-30T20:15:19.169Z,6.50
2018-08-30T20:17:48.154Z,6.60
2018-08-30T20:20:17.141Z,6.37
2018-08-30T20:22:46.189Z,7.07
2018-08-30T20:25:15.252Z,7.63
2018-08-30T20:27:44.261Z,7.53
2018-08-30T20:30:13.356Z,7.00
2018-08-30T20:32:42.354Z,7.13
2018-08-30T20:35:11.422Z,7.17
2018-08-30T20:37:40.434Z,7.20
2018-08-30T20:40:09.532Z,7.20
2018-08-30T20:42:38.607Z,6.33
2018-08-30T20:45:07.633Z,7.27
2018-08-30T20:47:36.574Z,6.97
2018-08-30T20:50:05.659Z,7.13
2018-08-30T20:52:34.703Z,7.73
2018-08-30T20:55:03.719Z,7.10
2018-08-30T20:57:32.767Z,6.93
2018-08-30T21:00:01.906Z,7.20
2018-08-30T21:02:30.871Z,7.53
2018-08-30T21:04:59.807Z,6.77
2018-08-30T21:07:28.908Z,7.63
2018-08-30T21:09:57.892Z,7.73
2018-08-30T21:12:26.927Z,6.57
2018-08-30T21:14:55.863Z,6.33
2018-08-30T21:17:24.869Z,7.07
2018-08-30T21:19:53.824Z,8.00
2018-08-30T21:22:22.812Z,7.33
2018-08-30T21:24:51.721Z,6.70
2018-08-30T21:27:20.652Z,6.87
2018-08-30T21:29:49.656Z,6.60
2018-08-30T21:32:18.651Z,7.00
2018-08-30T21:34:47.609Z,6.10
2018-08-30T21:37:16.556Z,5.87
2018-08-30T21:39:45.472Z,7.63
2018-08-30T21:42:15.446Z,5.87
2018-08-30T21:44:44.372Z,7.57
2018-08-30T21:47:13.303Z,7.40
2018-08-30T21:49:42.341Z,7.17
2018-08-30T21:52:11.284Z,6.57
2018-08-30T21:54:40.270Z,5.83
2018-08-30T21:57:09.228Z,6.43
2018-08-30T21:59:38.211Z,6.77
2018-08-30T22:02:07.290Z,6.10
2018-08-30T22:04:36.465Z,6.27
2018-08-30T22:07:05.410Z,5.70
2018-08-30T22:09:34.471Z,6.13
2018-08-30T22:12:03.560Z,5.57
2018-08-30T22:14:32.512Z,6.27
2018-08-30T22:17:01.443Z,5.80
2018-08-30T22:19:30.427Z,5.90
2018-08-30T22:21:59.398Z,5.63
2018-08-30T22:24:29.259Z,6.00
2018-08-30T22:26:58.290Z,6.30
2018-08-30T22:29:27.243Z,6.60
2018-08-30T22:31:56.222Z,5.57
2018-08-30T22:34:25.208Z,6.23
2018-08-30T22:36:54.233Z,7.03
2018-08-30T22:39:23.201Z,5.60
2018-08-30T22:41:52.182Z,5.93
2018-08-30T22:44:21.715Z,6.23
2018-08-30T22:46:50.800Z,6.17
2018-08-30T22:49:19.710Z,5.80
2018-08-30T22:51:48.676Z,6.03
2018-08-30T22:54:17.635Z,6.07
2018-08-30T22:56:46.821Z,5.67
2018-08-30T22:59:15.938Z,5.80
2018-08-30T23:01:44.891Z,5.93
2018-08-30T23:04:13.853Z,6.20
2018-08-30T23:06:43.027Z,5.73
2018-08-30T23:09:12.135Z,6.10
2018-08-30T23:11:41.162Z,4.50
2018-08-30T23:14:10.146Z,5.63
2018-08-30T23:16:39.224Z,5.37
2018-08-30T23:19:08.335Z,5.30
2018-08-30T23:21:37.332Z,6.13
2018-08-30T23:24:06.708Z,6.20
2018-08-30T23:26:35.655Z,5.17
2018-08-30T23:29:04.659Z,6.00
2018-08-30T23:31:33.668Z,6.50
2018-08-30T23:34:02.663Z,5.47
2018-08-30T23:36:31.578Z,5.57
2018-08-30T23:39:00.556Z,6.10
2018-08-30T23:41:29.564Z,5.50
2018-08-30T23:43:58.660Z,5.63
2018-08-30T23:46:27.636Z,5.60
2018-08-30T23:48:56.632Z,5.80
2018-08-30T23:51:25.771Z,5.83
2018-08-30T23:53:54.719Z,5.43
2018-08-30T23:56:23.754Z,5.53
2018-08-30T23:59:03.733Z,6.07
